Caranaiba, Brazil
Current Conditions -  °F | °C
As of 8:00 PM on Sunday 25 Jan 2015 (Local Time) from SBBQ Reporting Station
Broken Clouds Broken Clouds  
Wind Chill: 68°   Ceiling: 10000
Heat Index: 68°   Visibility: 6mi
Dew Point: 61°   Wind: 5mph
Humidity: 78%   Direction: 360°N
Pressure: 30.12"   Gusts: NA
Location:  20.88°S, 43.74°W
Report Text: SBBQ 252200Z 36004KT 9999 SCT020 FEW025TCU BKN100 20/16 Q1020
Loading
Personal Weather Stations






























Interactive Weather Map New forecast layout! Learn more

10-Day Weather Forecast

Advertisements
Track Severe Weather on mobile